sensor_id;sensor_type;location;lat;lon;timestamp;temperature;humidity
5415;DHT22;2730;51.512;7.504;2023-09-18T00:01:46;20.00;1.00
5415;DHT22;2730;51.512;7.504;2023-09-18T00:04:13;20.00;1.00
5415;DHT22;2730;51.512;7.504;2023-09-18T00:06:40;19.90;1.00
5415;DHT22;2730;51.512;7.504;2023-09-18T00:09:08;19.90;1.00
5415;DHT22;2730;51.512;7.504;2023-09-18T00:11:37;19.80;1.00
5415;DHT22;2730;51.512;7.504;2023-09-18T00:14:04;19.80;1.00
5415;DHT22;2730;51.512;7.504;2023-09-18T00:16:31;19.70;1.00
5415;DHT22;2730;51.512;7.504;2023-09-18T00:18:58;19.70;1.00
5415;DHT22;2730;51.512;7.504;2023-09-18T00:21:25;19.70;1.00
5415;DHT22;2730;51.512;7.504;2023-09-18T00:23:52;19.60;1.00
5415;DHT22;2730;51.512;7.504;2023-09-18T00:26:20;19.70;1.00
5415;DHT22;2730;51.512;7.504;2023-09-18T00:28:46;19.60;1.00
5415;DHT22;2730;51.512;7.504;2023-09-18T00:31:13;19.70;1.00
5415;DHT22;2730;51.512;7.504;2023-09-18T00:33:40;19.70;1.00
5415;DHT22;2730;51.512;7.504;2023-09-18T00:36:07;19.80;1.00
5415;DHT22;2730;51.512;7.504;2023-09-18T00:38:33;19.80;1.00
5415;DHT22;2730;51.512;7.504;2023-09-18T00:41:00;19.80;1.00
5415;DHT22;2730;51.512;7.504;2023-09-18T00:43:28;19.80;1.00
5415;DHT22;2730;51.512;7.504;2023-09-18T00:45:55;19.80;1.00
5415;DHT22;2730;51.512;7.504;2023-09-18T00:48:22;19.80;1.00
5415;DHT22;2730;51.512;7.504;2023-09-18T00:50:49;19.70;1.00
5415;DHT22;2730;51.512;7.504;2023-09-18T00:53:17;19.70;1.00
5415;DHT22;2730;51.512;7.504;2023-09-18T00:55:46;19.60;1.00
5415;DHT22;2730;51.512;7.504;2023-09-18T00:58:15;19.50;1.00
5415;DHT22;2730;51.512;7.504;2023-09-18T01:00:44;19.50;1.00
5415;DHT22;2730;51.512;7.504;2023-09-18T01:03:10;19.40;1.00
5415;DHT22;2730;51.512;7.504;2023-09-18T01:05:37;19.30;1.00
5415;DHT22;2730;51.512;7.504;2023-09-18T01:08:04;19.30;1.00
5415;DHT22;2730;51.512;7.504;2023-09-18T01:10:35;19.30;1.00
5415;DHT22;2730;51.512;7.504;2023-09-18T01:13:05;19.40;1.00
5415;DHT22;2730;51.512;7.504;2023-09-18T01:15:43;19.40;1.00
5415;DHT22;2730;51.512;7.504;2023-09-18T01:18:11;19.30;1.00
5415;DHT22;2730;51.512;7.504;2023-09-18T01:20:37;19.30;1.00
5415;DHT22;2730;51.512;7.504;2023-09-18T01:23:05;19.30;1.00
5415;DHT22;2730;51.512;7.504;2023-09-18T01:25:32;19.30;1.00
5415;DHT22;2730;51.512;7.504;2023-09-18T01:28:00;19.40;1.00
5415;DHT22;2730;51.512;7.504;2023-09-18T01:30:27;19.40;1.00
5415;DHT22;2730;51.512;7.504;2023-09-18T01:32:54;19.40;1.00
5415;DHT22;2730;51.512;7.504;2023-09-18T01:35:22;19.40;1.00
5415;DHT22;2730;51.512;7.504;2023-09-18T01:37:55;19.30;1.00
5415;DHT22;2730;51.512;7.504;2023-09-18T01:40:24;19.30;1.00
5415;DHT22;2730;51.512;7.504;2023-09-18T01:42:52;19.30;1.00
5415;DHT22;2730;51.512;7.504;2023-09-18T01:45:18;19.40;1.00
5415;DHT22;2730;51.512;7.504;2023-09-18T01:47:45;19.40;1.00
5415;DHT22;2730;51.512;7.504;2023-09-18T01:50:12;19.30;1.00
5415;DHT22;2730;51.512;7.504;2023-09-18T01:52:39;19.30;1.00
5415;DHT22;2730;51.512;7.504;2023-09-18T01:55:07;19.40;1.00
5415;DHT22;2730;51.512;7.504;2023-09-18T01:57:35;19.60;99.90
5415;DHT22;2730;51.512;7.504;2023-09-18T02:00:03;19.70;97.20
5415;DHT22;2730;51.512;7.504;2023-09-18T02:02:33;19.80;1.00
5415;DHT22;2730;51.512;7.504;2023-09-18T02:05:00;19.90;99.90
5415;DHT22;2730;51.512;7.504;2023-09-18T02:07:28;20.00;99.90
5415;DHT22;2730;51.512;7.504;2023-09-18T02:09:55;20.10;1.00
5415;DHT22;2730;51.512;7.504;2023-09-18T02:12:21;20.10;99.90
5415;DHT22;2730;51.512;7.504;2023-09-18T02:14:49;20.20;99.90
5415;DHT22;2730;51.512;7.504;2023-09-18T02:17:17;20.40;99.90
5415;DHT22;2730;51.512;7.504;2023-09-18T02:19:46;20.40;99.90
5415;DHT22;2730;51.512;7.504;2023-09-18T02:22:12;20.40;1.00
5415;DHT22;2730;51.512;7.504;2023-09-18T02:24:39;20.40;1.00
5415;DHT22;2730;51.512;7.504;2023-09-18T02:27:06;20.40;41.20
5415;DHT22;2730;51.512;7.504;2023-09-18T02:29:33;20.50;1.00
5415;DHT22;2730;51.512;7.504;2023-09-18T02:32:01;20.60;99.90
5415;DHT22;2730;51.512;7.504;2023-09-18T02:34:28;20.70;1.00
5415;DHT22;2730;51.512;7.504;2023-09-18T02:36:55;20.70;1.00
5415;DHT22;2730;51.512;7.504;2023-09-18T02:39:22;20.90;99.90
5415;DHT22;2730;51.512;7.504;2023-09-18T02:41:49;20.80;59.60
5415;DHT22;2730;51.512;7.504;2023-09-18T02:44:16;21.00;1.00
5415;DHT22;2730;51.512;7.504;2023-09-18T02:46:42;20.90;1.00
5415;DHT22;2730;51.512;7.504;2023-09-18T02:49:11;21.00;1.00
5415;DHT22;2730;51.512;7.504;2023-09-18T02:51:37;20.90;1.00
5415;DHT22;2730;51.512;7.504;2023-09-18T02:54:05;21.00;1.00
5415;DHT22;2730;51.512;7.504;2023-09-18T02:56:31;21.00;99.90
5415;DHT22;2730;51.512;7.504;2023-09-18T02:58:58;21.10;99.90
5415;DHT22;2730;51.512;7.504;2023-09-18T03:01:25;21.10;99.90
5415;DHT22;2730;51.512;7.504;2023-09-18T03:03:52;21.20;78.50
5415;DHT22;2730;51.512;7.504;2023-09-18T03:06:20;21.30;1.00
5415;DHT22;2730;51.512;7.504;2023-09-18T03:08:47;21.40;1.00
5415;DHT22;2730;51.512;7.504;2023-09-18T03:11:14;21.30;1.00
5415;DHT22;2730;51.512;7.504;2023-09-18T03:13:45;21.30;1.00
5415;DHT22;2730;51.512;7.504;2023-09-18T03:16:12;21.30;1.00
5415;DHT22;2730;51.512;7.504;2023-09-18T03:18:39;21.40;1.00
5415;DHT22;2730;51.512;7.504;2023-09-18T03:21:06;21.40;99.90
5415;DHT22;2730;51.512;7.504;2023-09-18T03:23:34;21.50;99.90
5415;DHT22;2730;51.512;7.504;2023-09-18T03:26:02;21.50;99.90
5415;DHT22;2730;51.512;7.504;2023-09-18T03:28:29;21.60;99.90
5415;DHT22;2730;51.512;7.504;2023-09-18T03:30:56;21.50;99.90
5415;DHT22;2730;51.512;7.504;2023-09-18T03:33:24;21.60;99.90
5415;DHT22;2730;51.512;7.504;2023-09-18T03:35:52;21.70;99.90
5415;DHT22;2730;51.512;7.504;2023-09-18T03:38:20;21.70;99.90
5415;DHT22;2730;51.512;7.504;2023-09-18T03:40:48;21.80;60.20
5415;DHT22;2730;51.512;7.504;2023-09-18T03:43:15;21.90;1.00
5415;DHT22;2730;51.512;7.504;2023-09-18T03:45:42;21.80;1.00
5415;DHT22;2730;51.512;7.504;2023-09-18T03:48:09;21.80;1.00
5415;DHT22;2730;51.512;7.504;2023-09-18T03:50:37;21.80;1.00
5415;DHT22;2730;51.512;7.504;2023-09-18T03:53:04;21.80;33.40
5415;DHT22;2730;51.512;7.504;2023-09-18T03:55:30;21.70;31.80
5415;DHT22;2730;51.512;7.504;2023-09-18T03:57:59;21.70;62.70
5415;DHT22;2730;51.512;7.504;2023-09-18T04:00:25;21.60;99.90
5415;DHT22;2730;51.512;7.504;2023-09-18T04:02:52;21.60;99.90
5415;DHT22;2730;51.512;7.504;2023-09-18T04:05:19;21.60;99.90
5415;DHT22;2730;51.512;7.504;2023-09-18T04:07:46;21.50;99.90
5415;DHT22;2730;51.512;7.504;2023-09-18T04:10:13;21.60;99.90
5415;DHT22;2730;51.512;7.504;2023-09-18T04:12:45;21.60;99.90
5415;DHT22;2730;51.512;7.504;2023-09-18T04:15:15;21.50;99.90
5415;DHT22;2730;51.512;7.504;2023-09-18T04:17:43;21.60;99.90
5415;DHT22;2730;51.512;7.504;2023-09-18T04:20:10;21.60;99.90
5415;DHT22;2730;51.512;7.504;2023-09-18T04:22:43;21.50;99.90
5415;DHT22;2730;51.512;7.504;2023-09-18T04:25:11;21.50;99.90
5415;DHT22;2730;51.512;7.504;2023-09-18T04:27:38;21.50;99.90
5415;DHT22;2730;51.512;7.504;2023-09-18T04:30:06;21.50;99.90
5415;DHT22;2730;51.512;7.504;2023-09-18T04:32:36;21.50;99.90
5415;DHT22;2730;51.512;7.504;2023-09-18T04:35:03;21.50;99.90
5415;DHT22;2730;51.512;7.504;2023-09-18T04:37:30;21.50;99.90
5415;DHT22;2730;51.512;7.504;2023-09-18T04:39:58;21.50;99.90
5415;DHT22;2730;51.512;7.504;2023-09-18T04:42:24;21.50;99.90
5415;DHT22;2730;51.512;7.504;2023-09-18T04:44:51;21.50;99.90
5415;DHT22;2730;51.512;7.504;2023-09-18T04:47:18;21.60;99.90
5415;DHT22;2730;51.512;7.504;2023-09-18T04:49:46;21.70;97.00
5415;DHT22;2730;51.512;7.504;2023-09-18T04:52:14;21.70;27.10
5415;DHT22;2730;51.512;7.504;2023-09-18T04:54:41;21.80;12.80
5415;DHT22;2730;51.512;7.504;2023-09-18T04:57:08;21.70;26.20
5415;DHT22;2730;51.512;7.504;2023-09-18T04:59:35;21.70;53.30
5415;DHT22;2730;51.512;7.504;2023-09-18T05:02:02;21.80;49.30
5415;DHT22;2730;51.512;7.504;2023-09-18T05:04:30;21.70;99.90
5415;DHT22;2730;51.512;7.504;2023-09-18T05:06:58;21.60;99.90
5415;DHT22;2730;51.512;7.504;2023-09-18T05:09:27;21.60;99.90
5415;DHT22;2730;51.512;7.504;2023-09-18T05:11:54;21.60;99.90
5415;DHT22;2730;51.512;7.504;2023-09-18T05:14:21;21.60;99.90
5415;DHT22;2730;51.512;7.504;2023-09-18T05:16:47;21.60;99.90
5415;DHT22;2730;51.512;7.504;2023-09-18T05:19:14;21.60;99.90
5415;DHT22;2730;51.512;7.504;2023-09-18T05:21:41;21.60;99.90
5415;DHT22;2730;51.512;7.504;2023-09-18T05:24:10;21.60;99.90
5415;DHT22;2730;51.512;7.504;2023-09-18T05:26:37;21.50;99.90
5415;DHT22;2730;51.512;7.504;2023-09-18T05:29:03;21.50;99.90
5415;DHT22;2730;51.512;7.504;2023-09-18T05:31:30;21.50;99.90
5415;DHT22;2730;51.512;7.504;2023-09-18T05:33:57;21.40;1.00
5415;DHT22;2730;51.512;7.504;2023-09-18T05:36:24;21.30;1.00
5415;DHT22;2730;51.512;7.504;2023-09-18T05:38:51;21.30;1.00
5415;DHT22;2730;51.512;7.504;2023-09-18T05:41:19;21.20;35.50
5415;DHT22;2730;51.512;7.504;2023-09-18T05:43:46;21.20;94.70
5415;DHT22;2730;51.512;7.504;2023-09-18T05:46:13;21.10;99.90
5415;DHT22;2730;51.512;7.504;2023-09-18T05:48:40;21.20;99.90
5415;DHT22;2730;51.512;7.504;2023-09-18T05:51:07;21.10;99.90
5415;DHT22;2730;51.512;7.504;2023-09-18T05:53:34;21.10;99.90
5415;DHT22;2730;51.512;7.504;2023-09-18T05:56:03;21.10;99.90
5415;DHT22;2730;51.512;7.504;2023-09-18T05:58:32;21.10;99.90
5415;DHT22;2730;51.512;7.504;2023-09-18T06:01:00;21.20;99.90
5415;DHT22;2730;51.512;7.504;2023-09-18T06:03:28;21.20;99.90
5415;DHT22;2730;51.512;7.504;2023-09-18T06:05:56;21.20;99.90
5415;DHT22;2730;51.512;7.504;2023-09-18T06:08:22;21.20;99.90
5415;DHT22;2730;51.512;7.504;2023-09-18T06:10:51;21.20;99.90
5415;DHT22;2730;51.512;7.504;2023-09-18T06:13:18;21.20;1.00
5415;DHT22;2730;51.512;7.504;2023-09-18T06:15:46;21.20;99.90
5415;DHT22;2730;51.512;7.504;2023-09-18T06:18:13;21.20;99.90
5415;DHT22;2730;51.512;7.504;2023-09-18T06:20:40;21.30;99.90
5415;DHT22;2730;51.512;7.504;2023-09-18T06:23:06;21.30;99.90
5415;DHT22;2730;51.512;7.504;2023-09-18T06:25:33;21.30;99.90
5415;DHT22;2730;51.512;7.504;2023-09-18T06:28:00;21.30;99.90
5415;DHT22;2730;51.512;7.504;2023-09-18T06:30:29;21.30;91.90
5415;DHT22;2730;51.512;7.504;2023-09-18T06:32:57;21.30;99.90
5415;DHT22;2730;51.512;7.504;2023-09-18T06:35:24;21.30;99.90
5415;DHT22;2730;51.512;7.504;2023-09-18T06:37:51;21.20;99.90
5415;DHT22;2730;51.512;7.504;2023-09-18T06:40:19;21.20;99.90
5415;DHT22;2730;51.512;7.504;2023-09-18T06:42:46;21.20;99.90
5415;DHT22;2730;51.512;7.504;2023-09-18T06:45:13;21.30;99.90
5415;DHT22;2730;51.512;7.504;2023-09-18T06:47:40;21.20;99.90
5415;DHT22;2730;51.512;7.504;2023-09-18T06:50:08;21.30;99.90
5415;DHT22;2730;51.512;7.504;2023-09-18T06:52:37;21.30;33.10
5415;DHT22;2730;51.512;7.504;2023-09-18T06:55:04;21.30;99.90
5415;DHT22;2730;51.512;7.504;2023-09-18T06:57:31;21.30;75.70
5415;DHT22;2730;51.512;7.504;2023-09-18T06:59:58;21.30;99.90
5415;DHT22;2730;51.512;7.504;2023-09-18T07:02:25;21.30;21.00
5415;DHT22;2730;51.512;7.504;2023-09-18T07:04:52;21.30;99.90
5415;DHT22;2730;51.512;7.504;2023-09-18T07:07:20;21.30;97.70
5415;DHT22;2730;51.512;7.504;2023-09-18T07:09:50;21.30;99.30
5415;DHT22;2730;51.512;7.504;2023-09-18T07:12:17;21.40;1.00
5415;DHT22;2730;51.512;7.504;2023-09-18T07:14:45;21.40;10.00
5415;DHT22;2730;51.512;7.504;2023-09-18T07:17:11;21.50;1.00
5415;DHT22;2730;51.512;7.504;2023-09-18T07:19:39;21.50;1.00
5415;DHT22;2730;51.512;7.504;2023-09-18T07:22:05;21.60;1.00
5415;DHT22;2730;51.512;7.504;2023-09-18T07:24:33;21.60;1.00
5415;DHT22;2730;51.512;7.504;2023-09-18T07:27:00;21.60;1.00
5415;DHT22;2730;51.512;7.504;2023-09-18T07:29:28;21.70;1.00
5415;DHT22;2730;51.512;7.504;2023-09-18T07:31:55;21.80;99.90
5415;DHT22;2730;51.512;7.504;2023-09-18T07:34:21;21.70;99.90
5415;DHT22;2730;51.512;7.504;2023-09-18T07:36:48;21.80;99.90
5415;DHT22;2730;51.512;7.504;2023-09-18T07:39:19;21.90;99.90
5415;DHT22;2730;51.512;7.504;2023-09-18T07:41:47;21.90;99.90
5415;DHT22;2730;51.512;7.504;2023-09-18T07:44:20;21.90;99.90
5415;DHT22;2730;51.512;7.504;2023-09-18T07:46:46;21.80;99.90
5415;DHT22;2730;51.512;7.504;2023-09-18T07:49:13;21.90;99.90
5415;DHT22;2730;51.512;7.504;2023-09-18T07:51:40;21.90;99.90
5415;DHT22;2730;51.512;7.504;2023-09-18T07:54:07;22.00;99.90
5415;DHT22;2730;51.512;7.504;2023-09-18T07:56:34;22.00;99.90
5415;DHT22;2730;51.512;7.504;2023-09-18T07:59:03;22.10;99.90
5415;DHT22;2730;51.512;7.504;2023-09-18T08:01:30;22.10;99.90
5415;DHT22;2730;51.512;7.504;2023-09-18T08:03:58;22.10;99.90
5415;DHT22;2730;51.512;7.504;2023-09-18T08:06:26;22.10;99.90
5415;DHT22;2730;51.512;7.504;2023-09-18T08:08:53;22.20;99.90
5415;DHT22;2730;51.512;7.504;2023-09-18T08:11:20;22.30;99.90
5415;DHT22;2730;51.512;7.504;2023-09-18T08:13:47;22.30;99.90
5415;DHT22;2730;51.512;7.504;2023-09-18T08:16:15;22.40;76.70
5415;DHT22;2730;51.512;7.504;2023-09-18T08:18:42;22.30;88.40
5415;DHT22;2730;51.512;7.504;2023-09-18T08:21:09;22.70;98.20
5415;DHT22;2730;51.512;7.504;2023-09-18T08:23:36;23.00;1.00
5415;DHT22;2730;51.512;7.504;2023-09-18T08:26:03;23.10;1.00
5415;DHT22;2730;51.512;7.504;2023-09-18T08:28:31;23.20;1.00
5415;DHT22;2730;51.512;7.504;2023-09-18T08:30:58;23.10;1.00
5415;DHT22;2730;51.512;7.504;2023-09-18T08:33:28;23.00;1.00
5415;DHT22;2730;51.512;7.504;2023-09-18T08:35:54;23.10;1.00
5415;DHT22;2730;51.512;7.504;2023-09-18T08:38:21;23.00;1.00
5415;DHT22;2730;51.512;7.504;2023-09-18T08:40:48;23.00;1.00
5415;DHT22;2730;51.512;7.504;2023-09-18T08:43:16;22.90;1.00
5415;DHT22;2730;51.512;7.504;2023-09-18T08:45:47;22.80;1.00
5415;DHT22;2730;51.512;7.504;2023-09-18T08:48:16;22.60;1.00
5415;DHT22;2730;51.512;7.504;2023-09-18T08:50:45;22.60;1.00
5415;DHT22;2730;51.512;7.504;2023-09-18T08:53:12;22.40;1.00
5415;DHT22;2730;51.512;7.504;2023-09-18T08:55:40;22.30;1.00
5415;DHT22;2730;51.512;7.504;2023-09-18T08:58:07;22.30;1.00
5415;DHT22;2730;51.512;7.504;2023-09-18T09:00:36;22.30;1.00
5415;DHT22;2730;51.512;7.504;2023-09-18T09:03:03;22.30;1.00
5415;DHT22;2730;51.512;7.504;2023-09-18T09:05:31;22.30;1.00
5415;DHT22;2730;51.512;7.504;2023-09-18T09:07:59;22.40;1.00
5415;DHT22;2730;51.512;7.504;2023-09-18T09:10:26;22.50;1.00
5415;DHT22;2730;51.512;7.504;2023-09-18T09:12:55;22.40;1.00
5415;DHT22;2730;51.512;7.504;2023-09-18T09:15:24;22.40;1.00
5415;DHT22;2730;51.512;7.504;2023-09-18T09:17:52;22.50;1.00
5415;DHT22;2730;51.512;7.504;2023-09-18T09:20:19;22.60;1.00
5415;DHT22;2730;51.512;7.504;2023-09-18T09:22:45;22.70;1.00
5415;DHT22;2730;51.512;7.504;2023-09-18T09:25:24;23.00;1.00
5415;DHT22;2730;51.512;7.504;2023-09-18T09:27:52;23.60;99.90
5415;DHT22;2730;51.512;7.504;2023-09-18T09:30:21;24.30;99.90
5415;DHT22;2730;51.512;7.504;2023-09-18T09:32:49;25.10;99.90
5415;DHT22;2730;51.512;7.504;2023-09-18T09:35:24;25.60;1.00
5415;DHT22;2730;51.512;7.504;2023-09-18T09:37:54;25.40;1.00
5415;DHT22;2730;51.512;7.504;2023-09-18T09:40:24;25.40;1.00
5415;DHT22;2730;51.512;7.504;2023-09-18T09:42:52;25.70;1.00
5415;DHT22;2730;51.512;7.504;2023-09-18T09:45:26;25.80;1.00
5415;DHT22;2730;51.512;7.504;2023-09-18T09:47:53;25.20;1.00
5415;DHT22;2730;51.512;7.504;2023-09-18T09:50:20;25.10;1.00
5415;DHT22;2730;51.512;7.504;2023-09-18T09:52:48;25.00;1.00
5415;DHT22;2730;51.512;7.504;2023-09-18T09:55:20;24.80;1.00
5415;DHT22;2730;51.512;7.504;2023-09-18T09:57:50;24.50;1.00
5415;DHT22;2730;51.512;7.504;2023-09-18T10:00:17;24.20;1.00
5415;DHT22;2730;51.512;7.504;2023-09-18T10:03:00;24.40;1.00
5415;DHT22;2730;51.512;7.504;2023-09-18T10:05:30;24.60;1.00
5415;DHT22;2730;51.512;7.504;2023-09-18T10:08:01;24.50;1.00
5415;DHT22;2730;51.512;7.504;2023-09-18T10:10:30;24.40;1.00
5415;DHT22;2730;51.512;7.504;2023-09-18T10:13:04;24.30;1.00
5415;DHT22;2730;51.512;7.504;2023-09-18T10:15:37;24.20;1.00
5415;DHT22;2730;51.512;7.504;2023-09-18T10:18:07;24.00;1.00
5415;DHT22;2730;51.512;7.504;2023-09-18T10:20:38;24.00;1.00
5415;DHT22;2730;51.512;7.504;2023-09-18T10:23:15;23.90;1.00
5415;DHT22;2730;51.512;7.504;2023-09-18T10:25:48;23.90;1.00
5415;DHT22;2730;51.512;7.504;2023-09-18T10:28:19;23.90;1.00
5415;DHT22;2730;51.512;7.504;2023-09-18T10:30:47;23.90;1.00
5415;DHT22;2730;51.512;7.504;2023-09-18T10:33:16;23.90;1.00
5415;DHT22;2730;51.512;7.504;2023-09-18T10:35:43;23.90;1.00
5415;DHT22;2730;51.512;7.504;2023-09-18T10:38:12;23.90;1.00
5415;DHT22;2730;51.512;7.504;2023-09-18T10:40:40;24.20;1.00
5415;DHT22;2730;51.512;7.504;2023-09-18T10:43:11;24.70;1.00
5415;DHT22;2730;51.512;7.504;2023-09-18T10:45:39;25.20;1.00
5415;DHT22;2730;51.512;7.504;2023-09-18T10:48:07;25.30;1.00
5415;DHT22;2730;51.512;7.504;2023-09-18T10:50:35;25.50;1.00
5415;DHT22;2730;51.512;7.504;2023-09-18T10:53:02;25.90;1.00
5415;DHT22;2730;51.512;7.504;2023-09-18T10:55:29;26.10;1.00
5415;DHT22;2730;51.512;7.504;2023-09-18T10:57:57;26.00;1.00
5415;DHT22;2730;51.512;7.504;2023-09-18T11:00:25;25.80;1.00
5415;DHT22;2730;51.512;7.504;2023-09-18T11:03:09;25.60;1.00
5415;DHT22;2730;51.512;7.504;2023-09-18T11:05:36;25.30;1.00
5415;DHT22;2730;51.512;7.504;2023-09-18T11:08:25;25.00;1.00
5415;DHT22;2730;51.512;7.504;2023-09-18T11:11:00;24.70;1.00
5415;DHT22;2730;51.512;7.504;2023-09-18T11:13:31;24.80;1.00
5415;DHT22;2730;51.512;7.504;2023-09-18T11:16:02;24.80;1.00
5415;DHT22;2730;51.512;7.504;2023-09-18T11:18:33;24.60;1.00
5415;DHT22;2730;51.512;7.504;2023-09-18T11:21:07;24.60;1.00
5415;DHT22;2730;51.512;7.504;2023-09-18T11:23:35;24.60;1.00
5415;DHT22;2730;51.512;7.504;2023-09-18T11:26:04;24.80;1.00
5415;DHT22;2730;51.512;7.504;2023-09-18T11:28:31;24.60;1.00
5415;DHT22;2730;51.512;7.504;2023-09-18T11:30:59;24.80;1.00
5415;DHT22;2730;51.512;7.504;2023-09-18T11:33:37;24.80;1.00
5415;DHT22;2730;51.512;7.504;2023-09-18T11:36:06;24.80;1.00
5415;DHT22;2730;51.512;7.504;2023-09-18T11:38:34;24.90;1.00
5415;DHT22;2730;51.512;7.504;2023-09-18T11:41:19;24.80;1.00
5415;DHT22;2730;51.512;7.504;2023-09-18T11:43:46;25.00;1.00
5415;DHT22;2730;51.512;7.504;2023-09-18T11:46:18;24.90;1.00
5415;DHT22;2730;51.512;7.504;2023-09-18T11:48:47;25.00;1.00
5415;DHT22;2730;51.512;7.504;2023-09-18T11:51:21;25.00;1.00
5415;DHT22;2730;51.512;7.504;2023-09-18T11:53:52;25.00;1.00
5415;DHT22;2730;51.512;7.504;2023-09-18T11:56:20;25.00;1.00
5415;DHT22;2730;51.512;7.504;2023-09-18T11:58:47;24.90;1.00
5415;DHT22;2730;51.512;7.504;2023-09-18T12:01:15;24.90;1.00
5415;DHT22;2730;51.512;7.504;2023-09-18T12:03:42;24.90;1.00
5415;DHT22;2730;51.512;7.504;2023-09-18T12:06:10;25.00;1.00
5415;DHT22;2730;51.512;7.504;2023-09-18T12:08:39;25.00;1.00
5415;DHT22;2730;51.512;7.504;2023-09-18T12:11:06;25.00;1.00
5415;DHT22;2730;51.512;7.504;2023-09-18T12:13:33;24.90;1.00
5415;DHT22;2730;51.512;7.504;2023-09-18T12:16:01;25.00;1.00
5415;DHT22;2730;51.512;7.504;2023-09-18T12:18:30;25.10;1.00
5415;DHT22;2730;51.512;7.504;2023-09-18T12:20:58;25.20;1.00
5415;DHT22;2730;51.512;7.504;2023-09-18T12:23:26;25.10;1.00
5415;DHT22;2730;51.512;7.504;2023-09-18T12:25:58;24.80;1.00
5415;DHT22;2730;51.512;7.504;2023-09-18T12:28:26;24.70;1.00
5415;DHT22;2730;51.512;7.504;2023-09-18T12:30:54;24.80;1.00
5415;DHT22;2730;51.512;7.504;2023-09-18T12:33:22;24.80;1.00
5415;DHT22;2730;51.512;7.504;2023-09-18T12:35:49;24.90;1.00
5415;DHT22;2730;51.512;7.504;2023-09-18T12:38:18;25.00;1.00
5415;DHT22;2730;51.512;7.504;2023-09-18T12:40:52;25.00;1.00
5415;DHT22;2730;51.512;7.504;2023-09-18T12:43:19;24.80;1.00
5415;DHT22;2730;51.512;7.504;2023-09-18T12:45:48;24.80;1.00
5415;DHT22;2730;51.512;7.504;2023-09-18T12:48:15;24.70;1.00
5415;DHT22;2730;51.512;7.504;2023-09-18T12:50:42;24.50;1.00
5415;DHT22;2730;51.512;7.504;2023-09-18T12:53:10;24.40;1.00
5415;DHT22;2730;51.512;7.504;2023-09-18T12:55:38;24.20;21.20
5415;DHT22;2730;51.512;7.504;2023-09-18T12:58:09;24.10;99.90
5415;DHT22;2730;51.512;7.504;2023-09-18T13:00:36;23.50;1.00
5415;DHT22;2730;51.512;7.504;2023-09-18T13:03:03;23.30;99.90
5415;DHT22;2730;51.512;7.504;2023-09-18T13:05:31;23.10;1.00
5415;DHT22;2730;51.512;7.504;2023-09-18T13:08:03;23.00;1.00
5415;DHT22;2730;51.512;7.504;2023-09-18T13:10:41;23.10;99.90
5415;DHT22;2730;51.512;7.504;2023-09-18T13:13:16;23.20;1.00
5415;DHT22;2730;51.512;7.504;2023-09-18T13:15:43;23.00;1.00
5415;DHT22;2730;51.512;7.504;2023-09-18T13:18:12;23.10;1.00
5415;DHT22;2730;51.512;7.504;2023-09-18T13:20:39;23.30;99.90
5415;DHT22;2730;51.512;7.504;2023-09-18T13:23:07;23.50;1.00
5415;DHT22;2730;51.512;7.504;2023-09-18T13:25:37;23.70;1.00
5415;DHT22;2730;51.512;7.504;2023-09-18T13:28:05;23.60;1.00
5415;DHT22;2730;51.512;7.504;2023-09-18T13:30:35;23.60;11.10
5415;DHT22;2730;51.512;7.504;2023-09-18T13:33:06;23.60;1.00
5415;DHT22;2730;51.512;7.504;2023-09-18T13:35:34;23.80;1.00
5415;DHT22;2730;51.512;7.504;2023-09-18T13:38:01;23.90;1.00
5415;DHT22;2730;51.512;7.504;2023-09-18T13:40:30;23.80;99.90
5415;DHT22;2730;51.512;7.504;2023-09-18T13:42:58;23.80;99.90
5415;DHT22;2730;51.512;7.504;2023-09-18T13:45:25;23.70;99.90
5415;DHT22;2730;51.512;7.504;2023-09-18T13:47:53;23.70;99.90
5415;DHT22;2730;51.512;7.504;2023-09-18T13:50:21;23.90;99.90
5415;DHT22;2730;51.512;7.504;2023-09-18T13:52:48;24.10;99.90
5415;DHT22;2730;51.512;7.504;2023-09-18T13:55:15;24.40;99.90
5415;DHT22;2730;51.512;7.504;2023-09-18T13:57:41;24.50;43.60
5415;DHT22;2730;51.512;7.504;2023-09-18T14:00:09;24.40;23.40
5415;DHT22;2730;51.512;7.504;2023-09-18T14:02:37;24.30;22.60
5415;DHT22;2730;51.512;7.504;2023-09-18T14:05:06;24.40;1.00
5415;DHT22;2730;51.512;7.504;2023-09-18T14:07:33;24.40;1.00
5415;DHT22;2730;51.512;7.504;2023-09-18T14:10:00;24.50;1.00
5415;DHT22;2730;51.512;7.504;2023-09-18T14:12:29;24.60;1.00
5415;DHT22;2730;51.512;7.504;2023-09-18T14:14:57;24.70;1.00
5415;DHT22;2730;51.512;7.504;2023-09-18T14:17:25;24.70;1.00
5415;DHT22;2730;51.512;7.504;2023-09-18T14:19:51;24.80;1.00
5415;DHT22;2730;51.512;7.504;2023-09-18T14:22:20;24.80;1.00
5415;DHT22;2730;51.512;7.504;2023-09-18T14:24:47;24.70;1.00
5415;DHT22;2730;51.512;7.504;2023-09-18T14:27:14;24.60;1.00
5415;DHT22;2730;51.512;7.504;2023-09-18T14:29:41;24.40;1.00
5415;DHT22;2730;51.512;7.504;2023-09-18T14:32:07;24.50;1.00
5415;DHT22;2730;51.512;7.504;2023-09-18T14:34:34;24.50;1.00
5415;DHT22;2730;51.512;7.504;2023-09-18T14:37:01;24.50;1.00
5415;DHT22;2730;51.512;7.504;2023-09-18T14:39:31;24.50;99.90
5415;DHT22;2730;51.512;7.504;2023-09-18T14:41:58;24.60;99.90
5415;DHT22;2730;51.512;7.504;2023-09-18T14:44:25;24.70;99.90
5415;DHT22;2730;51.512;7.504;2023-09-18T14:46:52;24.60;99.90
5415;DHT22;2730;51.512;7.504;2023-09-18T14:49:19;24.50;99.90
5415;DHT22;2730;51.512;7.504;2023-09-18T14:51:46;24.40;99.90
5415;DHT22;2730;51.512;7.504;2023-09-18T14:54:14;24.20;99.90
5415;DHT22;2730;51.512;7.504;2023-09-18T14:56:43;24.30;99.90
5415;DHT22;2730;51.512;7.504;2023-09-18T14:59:11;24.30;99.90
5415;DHT22;2730;51.512;7.504;2023-09-18T15:01:38;24.40;99.90
5415;DHT22;2730;51.512;7.504;2023-09-18T15:04:08;24.40;99.90
5415;DHT22;2730;51.512;7.504;2023-09-18T15:06:35;24.50;99.90
5415;DHT22;2730;51.512;7.504;2023-09-18T15:09:02;24.40;99.90
5415;DHT22;2730;51.512;7.504;2023-09-18T15:11:29;24.30;99.90
5415;DHT22;2730;51.512;7.504;2023-09-18T15:13:58;24.20;99.90
5415;DHT22;2730;51.512;7.504;2023-09-18T15:16:24;24.10;99.90
5415;DHT22;2730;51.512;7.504;2023-09-18T15:18:51;24.10;99.90
5415;DHT22;2730;51.512;7.504;2023-09-18T15:21:19;24.10;99.90
5415;DHT22;2730;51.512;7.504;2023-09-18T15:23:46;24.10;99.90
5415;DHT22;2730;51.512;7.504;2023-09-18T15:26:14;24.20;99.90
5415;DHT22;2730;51.512;7.504;2023-09-18T15:28:40;24.30;99.90
5415;DHT22;2730;51.512;7.504;2023-09-18T15:31:08;24.30;99.90
5415;DHT22;2730;51.512;7.504;2023-09-18T15:33:35;24.10;99.90
5415;DHT22;2730;51.512;7.504;2023-09-18T15:36:04;24.00;99.90
5415;DHT22;2730;51.512;7.504;2023-09-18T15:38:30;23.90;99.90
5415;DHT22;2730;51.512;7.504;2023-09-18T15:40:57;23.90;99.90
5415;DHT22;2730;51.512;7.504;2023-09-18T15:43:25;23.90;99.90
5415;DHT22;2730;51.512;7.504;2023-09-18T15:45:51;23.90;99.90
5415;DHT22;2730;51.512;7.504;2023-09-18T15:48:20;23.90;99.90
5415;DHT22;2730;51.512;7.504;2023-09-18T15:50:47;24.00;99.90
5415;DHT22;2730;51.512;7.504;2023-09-18T15:53:14;24.00;99.90
5415;DHT22;2730;51.512;7.504;2023-09-18T15:55:41;24.10;99.90
5415;DHT22;2730;51.512;7.504;2023-09-18T15:58:08;24.10;99.90
5415;DHT22;2730;51.512;7.504;2023-09-18T16:00:36;24.10;99.90
5415;DHT22;2730;51.512;7.504;2023-09-18T16:03:04;24.20;99.90
5415;DHT22;2730;51.512;7.504;2023-09-18T16:05:32;24.10;99.90
5415;DHT22;2730;51.512;7.504;2023-09-18T16:07:59;24.10;99.90
5415;DHT22;2730;51.512;7.504;2023-09-18T16:10:27;24.00;99.90
5415;DHT22;2730;51.512;7.504;2023-09-18T16:12:54;23.90;99.90
5415;DHT22;2730;51.512;7.504;2023-09-18T16:15:21;23.80;99.90